Time;durP1;ratioP1;P1;durP2;ratioP2;P2;SDS_P1;SDS_P2;PMS_P1;PMS_P2;Temp;Humidity;BMP_temperature;BMP_pressure;BME280_temperature;BME280_humidity;BME280_pressure;Samples;Min_cycle;Max_cycle;Signal;HPM_P1;HPM_P2
2023/07/11 00:00:16;;;;;;;3.85;2.90;;;18.70;99.90;;;;;;5094966;28;20453;-58
2023/07/11 00:02:44;;;;;;;6.40;2.93;;;18.70;99.90;;;;;;5097051;28;20250;-58
2023/07/11 00:05:12;;;;;;;5.70;2.90;;;18.70;99.90;;;;;;5106228;28;20434;-57
2023/07/11 00:07:39;;;;;;;4.40;3.00;;;18.60;99.90;;;;;;5101249;28;20634;-58
2023/07/11 00:10:08;;;;;;;5.50;3.37;;;18.60;99.90;;;;;;5094037;28;20446;-59
2023/07/11 00:12:34;;;;;;;4.80;3.07;;;18.60;99.90;;;;;;5094226;28;20472;-58
2023/07/11 00:15:01;;;;;;;3.60;2.83;;;18.50;99.90;;;;;;5093784;28;20446;-58
2023/07/11 00:17:29;;;;;;;4.43;3.30;;;18.50;99.90;;;;;;5093631;28;20485;-59
2023/07/11 00:19:58;;;;;;;4.80;2.95;;;18.50;99.90;;;;;;5093894;28;20442;-58
2023/07/11 00:22:28;;;;;;;6.10;2.83;;;18.50;99.90;;;;;;5094159;28;20221;-60
2023/07/11 00:24:54;;;;;;;7.60;2.90;;;18.50;99.90;;;;;;5094129;28;20955;-58
2023/07/11 00:27:23;;;;;;;4.27;3.07;;;18.40;99.90;;;;;;5095819;28;20434;-58
2023/07/11 00:29:50;;;;;;;4.63;3.50;;;18.40;99.90;;;;;;5098818;28;20478;-58
2023/07/11 00:32:17;;;;;;;3.80;3.40;;;18.40;99.90;;;;;;5098176;28;20466;-58
2023/07/11 00:34:45;;;;;;;4.90;2.93;;;18.40;99.90;;;;;;5098461;28;20529;-58
2023/07/11 00:37:12;;;;;;;4.90;2.90;;;18.40;99.90;;;;;;5098290;28;20473;-57
2023/07/11 00:39:39;;;;;;;7.60;3.47;;;18.40;99.90;;;;;;5098282;28;20446;-57
2023/07/11 00:42:07;;;;;;;10.27;4.00;;;18.30;99.90;;;;;;5097804;28;20473;-59
2023/07/11 00:44:52;;;;;;;6.10;3.30;;;18.30;99.90;;;;;;5098693;28;20453;-57
2023/07/11 00:47:19;;;;;;;5.10;2.73;;;18.30;99.90;;;;;;5097969;28;20935;-59
2023/07/11 00:49:48;;;;;;;2.97;2.70;;;18.30;99.90;;;;;;5097546;28;20975;-58
2023/07/11 00:52:17;;;;;;;4.97;3.00;;;18.30;99.90;;;;;;5097312;28;20478;-58
2023/07/11 00:54:55;;;;;;;4.30;3.00;;;18.30;99.90;;;;;;5098563;28;20449;-57
2023/07/11 00:57:23;;;;;;;4.60;3.40;;;18.30;99.90;;;;;;5097648;28;20967;-58
2023/07/11 00:59:51;;;;;;;3.72;3.25;;;18.20;99.90;;;;;;5097892;28;20966;-58
2023/07/11 01:02:21;;;;;;;5.90;3.37;;;18.20;99.90;;;;;;5127168;22;20378;-59
2023/07/11 01:04:49;;;;;;;4.20;3.40;;;18.10;99.90;;;;;;5116875;28;20445;-60
2023/07/11 01:07:19;;;;;;;6.93;3.70;;;18.10;99.90;;;;;;5116730;28;20464;-59
2023/07/11 01:09:46;;;;;;;6.27;3.23;;;18.10;99.90;;;;;;5116847;28;20452;-60
2023/07/11 01:12:15;;;;;;;3.10;2.80;;;18.10;99.90;;;;;;5116447;28;20994;-59
2023/07/11 01:14:43;;;;;;;5.83;3.07;;;18.00;99.90;;;;;;5116601;28;20995;-58
2023/07/11 01:17:24;;;;;;;5.67;3.33;;;18.00;99.90;;;;;;5116835;28;20483;-60
2023/07/11 01:19:54;;;;;;;6.30;3.17;;;18.00;99.90;;;;;;5116610;28;20429;-59
2023/07/11 01:22:22;;;;;;;7.10;3.30;;;18.00;99.90;;;;;;5116539;28;20551;-59
2023/07/11 01:24:50;;;;;;;4.33;2.43;;;17.90;99.90;;;;;;5116477;28;20444;-59
2023/07/11 01:27:17;;;;;;;4.43;2.70;;;17.90;99.90;;;;;;5117172;28;20533;-59
2023/07/11 01:29:44;;;;;;;4.87;2.80;;;17.90;99.90;;;;;;5116424;28;20448;-60
2023/07/11 01:32:11;;;;;;;5.40;3.00;;;17.90;99.90;;;;;;5115894;28;20465;-59
2023/07/11 01:34:38;;;;;;;6.90;3.37;;;17.90;99.90;;;;;;5115927;28;20445;-59
2023/07/11 01:37:05;;;;;;;4.60;2.70;;;17.90;99.90;;;;;;5115611;28;20819;-59
2023/07/11 01:39:34;;;;;;;3.30;2.53;;;17.90;99.90;;;;;;5115328;28;20441;-60
2023/07/11 01:42:01;;;;;;;3.90;2.90;;;17.90;99.90;;;;;;5116398;28;20836;-59
2023/07/11 01:44:28;;;;;;;6.80;2.97;;;17.90;99.90;;;;;;5115868;28;20956;-59
2023/07/11 01:46:55;;;;;;;5.37;3.17;;;17.90;99.90;;;;;;5116052;28;20202;-59
2023/07/11 01:49:22;;;;;;;4.93;2.73;;;17.80;99.90;;;;;;5115793;28;20437;-59
2023/07/11 01:51:49;;;;;;;4.57;2.63;;;17.80;99.90;;;;;;5115912;28;20468;-58
2023/07/11 01:54:15;;;;;;;4.63;2.77;;;17.90;99.90;;;;;;5115976;28;20457;-57
2023/07/11 01:56:43;;;;;;;5.10;2.80;;;17.80;99.90;;;;;;5115945;28;20510;-59
2023/07/11 01:59:10;;;;;;;6.50;2.95;;;17.80;99.90;;;;;;5115811;28;20493;-58
2023/07/11 02:01:37;;;;;;;8.07;3.20;;;17.80;99.90;;;;;;5115487;28;20239;-60
2023/07/11 02:04:04;;;;;;;4.87;3.20;;;17.70;99.90;;;;;;5115700;28;20430;-57
2023/07/11 02:06:31;;;;;;;5.33;3.07;;;17.70;99.90;;;;;;5115817;28;20438;-58
2023/07/11 02:08:58;;;;;;;3.80;2.83;;;17.70;99.90;;;;;;5115355;28;20921;-58
2023/07/11 02:11:24;;;;;;;4.83;3.70;;;17.70;99.90;;;;;;5115400;28;20457;-58
2023/07/11 02:13:52;;;;;;;4.20;2.90;;;17.60;99.90;;;;;;5115434;28;20816;-58
2023/07/11 02:16:19;;;;;;;4.20;3.10;;;17.60;99.90;;;;;;5115310;28;20931;-58
2023/07/11 02:18:46;;;;;;;5.77;3.03;;;17.60;99.90;;;;;;5115044;28;21005;-58
2023/07/11 02:21:13;;;;;;;3.37;2.50;;;17.60;99.90;;;;;;5115330;28;20460;-59
2023/07/11 02:23:40;;;;;;;5.60;3.10;;;17.60;99.90;;;;;;5115158;28;20939;-60
2023/07/11 02:26:07;;;;;;;5.47;3.50;;;17.50;99.90;;;;;;5115141;28;20438;-59
2023/07/11 02:28:33;;;;;;;5.60;3.37;;;17.50;99.90;;;;;;5115181;28;20429;-58
2023/07/11 02:31:01;;;;;;;4.53;3.00;;;17.50;99.90;;;;;;5114605;28;20442;-59
2023/07/11 02:33:28;;;;;;;3.85;3.00;;;17.40;99.90;;;;;;5114920;28;20452;-58
2023/07/11 02:35:55;;;;;;;2.90;2.63;;;17.40;99.90;;;;;;5114684;28;20208;-59
2023/07/11 02:38:22;;;;;;;3.20;2.60;;;17.40;99.90;;;;;;5114592;28;20473;-58
2023/07/11 02:40:49;;;;;;;5.10;3.00;;;17.40;99.90;;;;;;5114396;28;20533;-59
2023/07/11 02:43:16;;;;;;;8.03;3.50;;;17.40;99.90;;;;;;5114516;28;20465;-58
2023/07/11 02:45:43;;;;;;;4.40;3.30;;;17.30;99.90;;;;;;5114694;28;20444;-60
2023/07/11 02:48:11;;;;;;;5.70;3.30;;;17.30;99.90;;;;;;5114706;28;20460;-59
2023/07/11 02:50:38;;;;;;;2.93;2.63;;;17.30;99.90;;;;;;5113358;28;20460;-58
2023/07/11 02:53:05;;;;;;;4.87;3.10;;;17.30;99.90;;;;;;5114354;28;20457;-58
2023/07/11 02:55:31;;;;;;;5.83;3.60;;;17.20;99.90;;;;;;5114334;28;20521;-57
2023/07/11 02:57:58;;;;;;;6.30;2.77;;;17.20;99.90;;;;;;5114154;28;20477;-59
2023/07/11 03:00:25;;;;;;;8.10;3.57;;;17.20;99.90;;;;;;5114308;28;20445;-59
2023/07/11 03:02:52;;;;;;;4.90;2.80;;;17.20;99.90;;;;;;5114056;28;20560;-58
2023/07/11 03:05:20;;;;;;;4.03;3.00;;;17.10;99.90;;;;;;5114054;28;20449;-58
2023/07/11 03:07:47;;;;;;;3.90;2.83;;;17.10;99.90;;;;;;5113876;28;20445;-58
2023/07/11 03:10:14;;;;;;;3.43;3.13;;;17.10;99.90;;;;;;5114140;28;20498;-58
2023/07/11 03:12:41;;;;;;;6.20;3.23;;;17.10;99.90;;;;;;5113775;28;20540;-57
2023/07/11 03:15:08;;;;;;;5.00;3.03;;;17.10;99.90;;;;;;5114038;28;20445;-58
2023/07/11 03:17:35;;;;;;;3.67;3.27;;;17.00;99.90;;;;;;5113821;28;20473;-59
2023/07/11 03:20:02;;;;;;;3.30;2.97;;;17.00;99.90;;;;;;5113911;28;20453;-58
2023/07/11 03:22:30;;;;;;;7.30;3.80;;;17.00;99.90;;;;;;5113708;28;20462;-58
2023/07/11 03:24:57;;;;;;;4.57;2.90;;;17.00;99.90;;;;;;5113719;28;20448;-58
2023/07/11 03:27:24;;;;;;;4.43;2.50;;;17.00;99.90;;;;;;5113710;28;20433;-58
2023/07/11 03:29:51;;;;;;;4.20;3.50;;;17.00;99.90;;;;;;5114515;28;20444;-58
2023/07/11 03:32:17;;;;;;;6.00;3.50;;;17.00;99.90;;;;;;5114009;28;20457;-57
2023/07/11 03:34:44;;;;;;;6.80;2.67;;;17.00;99.90;;;;;;5113637;28;20460;-57
2023/07/11 03:37:11;;;;;;;8.43;3.87;;;17.10;99.90;;;;;;5113292;28;20500;-57
2023/07/11 03:39:39;;;;;;;5.93;3.80;;;17.10;99.90;;;;;;5113687;28;20464;-57
2023/07/11 03:42:06;;;;;;;5.40;3.50;;;17.10;99.90;;;;;;5113642;28;20465;-58
2023/07/11 03:44:33;;;;;;;6.13;4.40;;;17.20;99.90;;;;;;5113750;28;20441;-58
2023/07/11 03:47:00;;;;;;;5.53;2.97;;;17.20;99.90;;;;;;5113453;28;20448;-58
2023/07/11 03:49:26;;;;;;;4.07;3.33;;;17.20;99.90;;;;;;5113787;28;20203;-59
2023/07/11 03:51:53;;;;;;;4.07;3.23;;;17.30;99.90;;;;;;5113525;28;20469;-60
2023/07/11 03:54:23;;;;;;;5.43;3.20;;;17.30;99.90;;;;;;5112988;28;20437;-58
2023/07/11 03:56:51;;;;;;;3.20;2.83;;;17.30;99.90;;;;;;5113173;28;20449;-59
2023/07/11 03:59:18;;;;;;;6.65;3.28;;;17.40;99.90;;;;;;5113091;28;20849;-56
2023/07/11 04:01:45;;;;;;;6.17;3.70;;;17.40;99.90;;;;;;5112754;28;20249;-59
2023/07/11 04:04:12;;;;;;;3.45;2.65;;;17.60;99.90;;;;;;5113293;28;20447;-58
2023/07/11 04:06:38;;;;;;;8.80;3.33;;;17.80;99.90;;;;;;5112934;28;20703;-57
2023/07/11 04:11:56;;;;;;;7.33;2.97;;;18.50;99.90;;;;;;5090671;27;20725;-59
2023/07/11 04:14:23;;;;;;;3.23;2.43;;;18.90;99.90;;;;;;5090223;28;20447;-56
2023/07/11 04:16:50;;;;;;;6.57;3.67;;;19.20;99.90;;;;;;5090057;28;20448;-56
2023/07/11 04:19:18;;;;;;;3.83;2.77;;;19.50;99.90;;;;;;5090024;28;20534;-57
2023/07/11 04:21:44;;;;;;;4.60;2.70;;;19.90;99.90;;;;;;5089387;28;20847;-56
2023/07/11 04:24:11;;;;;;;3.20;2.60;;;20.20;99.90;;;;;;5089886;28;20440;-57
2023/07/11 04:26:38;;;;;;;6.50;3.20;;;20.50;99.90;;;;;;5089632;28;20453;-57
2023/07/11 04:29:06;;;;;;;3.93;2.70;;;20.70;99.90;;;;;;5089786;28;20461;-57
2023/07/11 04:31:33;;;;;;;5.17;3.20;;;20.90;99.90;;;;;;5089243;28;20822;-57
2023/07/11 04:34:00;;;;;;;6.13;3.47;;;21.10;99.90;;;;;;5090495;28;20439;-57
2023/07/11 04:36:27;;;;;;;4.23;2.70;;;21.20;99.90;;;;;;5089719;28;20442;-56
2023/07/11 04:38:54;;;;;;;3.03;2.37;;;21.30;99.90;;;;;;5089915;28;20509;-56
2023/07/11 04:41:21;;;;;;;2.90;2.37;;;21.50;99.60;;;;;;5089698;28;20459;-56
2023/07/11 04:43:47;;;;;;;3.30;2.73;;;21.50;98.40;;;;;;5090490;28;20940;-57
2023/07/11 04:46:16;;;;;;;6.97;3.90;;;21.40;98.20;;;;;;5090283;28;20446;-56
2023/07/11 04:48:43;;;;;;;5.87;2.77;;;21.40;98.20;;;;;;5089652;28;20450;-58
2023/07/11 04:51:10;;;;;;;4.70;2.87;;;21.50;97.80;;;;;;5089297;28;20485;-58
2023/07/11 04:53:38;;;;;;;4.07;2.40;;;21.70;96.80;;;;;;5089379;28;20446;-57
2023/07/11 04:56:07;;;;;;;6.33;2.53;;;21.90;95.60;;;;;;5089761;28;20475;-57
2023/07/11 04:58:36;;;;;;;5.23;2.70;;;21.80;94.70;;;;;;5089565;28;20449;-58
2023/07/11 05:01:04;;;;;;;5.30;2.80;;;21.80;94.70;;;;;;5089302;28;20442;-57
2023/07/11 05:03:32;;;;;;;3.13;2.40;;;21.90;94.40;;;;;;5089487;28;20443;-57
2023/07/11 05:06:00;;;;;;;3.00;2.70;;;22.20;93.50;;;;;;5089555;28;20445;-57
2023/07/11 05:08:26;;;;;;;5.30;2.77;;;22.60;92.20;;;;;;5089605;28;20439;-57
2023/07/11 05:10:54;;;;;;;4.80;2.37;;;22.90;91.00;;;;;;5088950;28;20489;-57
2023/07/11 05:13:21;;;;;;;4.47;2.97;;;23.20;89.10;;;;;;5089182;28;20459;-59
2023/07/11 05:15:48;;;;;;;5.13;2.80;;;23.50;86.10;;;;;;5089780;28;20451;-57
2023/07/11 05:18:15;;;;;;;4.13;2.97;;;23.70;83.20;;;;;;5089178;28;20439;-57
2023/07/11 05:20:43;;;;;;;4.50;2.80;;;23.60;81.30;;;;;;5089205;28;20446;-57
2023/07/11 05:23:09;;;;;;;6.27;3.23;;;23.70;80.30;;;;;;5076148;28;20467;-57
2023/07/11 05:25:38;;;;;;;4.37;2.67;;;23.70;78.50;;;;;;5076371;28;20443;-57
2023/07/11 05:28:05;;;;;;;7.03;2.83;;;23.90;77.50;;;;;;5075992;28;20494;-58
2023/07/11 05:30:32;;;;;;;5.47;2.70;;;24.10;75.80;;;;;;5076736;28;20514;-57
2023/07/11 05:32:59;;;;;;;3.70;3.00;;;24.30;74.40;;;;;;5075949;28;20550;-60
2023/07/11 05:35:25;;;;;;;4.47;3.20;;;24.40;72.70;;;;;;5075530;28;20525;-57
2023/07/11 05:37:54;;;;;;;7.60;2.80;;;24.50;71.00;;;;;;5075626;28;20542;-58
2023/07/11 05:40:20;;;;;;;8.13;3.37;;;24.60;70.10;;;;;;5075881;28;20443;-56
2023/07/11 05:42:47;;;;;;;5.00;2.73;;;24.60;69.00;;;;;;5075221;28;20566;-57
2023/07/11 05:45:14;;;;;;;3.53;2.63;;;24.60;68.30;;;;;;5075188;28;20448;-56
2023/07/11 05:47:41;;;;;;;4.07;2.50;;;24.60;67.70;;;;;;5075372;28;20830;-57
2023/07/11 05:50:08;;;;;;;6.30;2.87;;;24.50;67.40;;;;;;5075161;28;20471;-58
2023/07/11 05:52:35;;;;;;;3.40;2.33;;;24.50;67.00;;;;;;5075690;28;20469;-58
2023/07/11 05:55:03;;;;;;;4.90;2.43;;;24.60;66.60;;;;;;5075076;28;20444;-58
2023/07/11 05:57:30;;;;;;;5.00;2.87;;;24.70;66.20;;;;;;5075013;28;20509;-58
2023/07/11 05:59:57;;;;;;;6.37;3.00;;;24.80;65.70;;;;;;5075227;28;20466;-58
2023/07/11 06:02:24;;;;;;;2.83;2.20;;;24.90;65.30;;;;;;5074942;28;20455;-59
2023/07/11 06:04:50;;;;;;;3.13;2.63;;;25.10;64.80;;;;;;5075186;28;20554;-59
2023/07/11 06:07:17;;;;;;;7.70;3.27;;;25.20;64.30;;;;;;5074573;28;20451;-59
2023/07/11 06:09:44;;;;;;;3.13;2.77;;;25.30;63.70;;;;;;5073794;28;20455;-59
2023/07/11 06:12:12;;;;;;;3.63;2.27;;;25.50;63.00;;;;;;5074808;28;20490;-58
2023/07/11 06:14:39;;;;;;;2.70;2.37;;;25.50;62.50;;;;;;5074337;28;20443;-59
2023/07/11 06:17:06;;;;;;;3.87;2.20;;;25.40;62.30;;;;;;5074298;28;20440;-59
2023/07/11 06:19:33;;;;;;;4.37;2.50;;;25.30;62.20;;;;;;5074447;28;20448;-59
2023/07/11 06:21:59;;;;;;;4.83;2.30;;;25.20;63.20;;;;;;5074384;28;20459;-59
2023/07/11 06:24:26;;;;;;;3.87;2.60;;;25.20;62.50;;;;;;5074858;28;20491;-58
2023/07/11 06:26:53;;;;;;;6.63;2.30;;;25.10;62.40;;;;;;5074048;28;20976;-58
2023/07/11 06:29:21;;;;;;;3.00;2.20;;;25.10;62.30;;;;;;5074533;28;20805;-58
2023/07/11 06:31:48;;;;;;;4.60;2.50;;;25.10;62.10;;;;;;5073851;28;20494;-58
2023/07/11 06:34:15;;;;;;;7.00;2.87;;;25.00;62.10;;;;;;5073239;28;20443;-56
2023/07/11 06:36:42;;;;;;;3.93;2.77;;;24.90;62.10;;;;;;5074322;28;20540;-58
2023/07/11 06:39:08;;;;;;;3.40;2.50;;;24.90;62.10;;;;;;5074472;28;20450;-58
2023/07/11 06:41:35;;;;;;;5.97;2.70;;;24.80;62.00;;;;;;5074082;28;20468;-58
2023/07/11 06:44:02;;;;;;;3.57;2.20;;;24.70;62.00;;;;;;5074396;28;20448;-58
2023/07/11 06:46:30;;;;;;;5.40;3.30;;;24.70;62.00;;;;;;5074251;28;20443;-58
2023/07/11 06:48:59;;;;;;;7.13;2.47;;;24.60;62.00;;;;;;5074571;28;20458;-57
2023/07/11 06:51:26;;;;;;;4.27;3.10;;;24.60;62.70;;;;;;5073908;28;20506;-57
2023/07/11 06:53:54;;;;;;;5.23;3.07;;;24.60;62.10;;;;;;5073665;28;20444;-58
2023/07/11 06:56:21;;;;;;;3.70;2.70;;;24.60;62.20;;;;;;5074061;28;20829;-58
2023/07/11 06:58:48;;;;;;;7.00;2.70;;;24.70;62.30;;;;;;5073924;28;20446;-57
2023/07/11 07:03:53;;;;;;;4.10;2.63;;;24.90;62.20;;;;;;5033611;28;20468;-57
2023/07/11 07:06:20;;;;;;;7.17;3.03;;;25.00;62.00;;;;;;5033502;28;20753;-56
2023/07/11 07:08:48;;;;;;;3.90;3.07;;;25.00;61.90;;;;;;5034112;28;20529;-57
2023/07/11 07:11:15;;;;;;;3.80;2.73;;;25.10;61.70;;;;;;5033743;28;20485;-57
2023/07/11 07:13:42;;;;;;;4.40;2.53;;;25.20;61.60;;;;;;5014552;28;20453;-57
2023/07/11 07:16:10;;;;;;;7.10;3.93;;;25.30;61.60;;;;;;5014466;28;20879;-57
2023/07/11 07:18:39;;;;;;;4.13;2.63;;;25.30;61.70;;;;;;5015384;28;20454;-56
2023/07/11 07:21:09;;;;;;;5.63;3.53;;;25.40;61.80;;;;;;5015012;28;20454;-56
2023/07/11 07:23:36;;;;;;;4.27;2.47;;;25.40;61.60;;;;;;5014094;28;20501;-57
2023/07/11 07:26:04;;;;;;;4.07;2.50;;;25.50;61.60;;;;;;5013774;28;20971;-56
2023/07/11 07:28:32;;;;;;;4.80;3.17;;;25.50;61.30;;;;;;5014276;28;20442;-57
2023/07/11 07:31:00;;;;;;;4.83;2.60;;;25.60;61.00;;;;;;5013590;28;20572;-57
2023/07/11 07:33:27;;;;;;;7.47;3.13;;;25.70;60.50;;;;;;5014048;28;20457;-58
2023/07/11 07:36:00;;;;;;;4.40;2.77;;;25.90;60.10;;;;;;5014563;28;20457;-57
2023/07/11 07:38:28;;;;;;;7.00;2.67;;;26.00;59.80;;;;;;5014245;28;20515;-57
2023/07/11 07:40:56;;;;;;;2.60;2.40;;;26.10;59.60;;;;;;5013812;28;20500;-57
2023/07/11 07:43:23;;;;;;;6.73;2.53;;;26.10;59.50;;;;;;5013726;28;20470;-57
2023/07/11 07:45:50;;;;;;;5.07;3.00;;;26.20;59.40;;;;;;5013281;28;20453;-55
2023/07/11 07:48:19;;;;;;;3.20;2.80;;;26.30;59.30;;;;;;5013234;28;20913;-54
2023/07/11 07:50:46;;;;;;;2.47;2.27;;;26.30;59.10;;;;;;5013339;28;20465;-56
2023/07/11 07:53:13;;;;;;;3.60;2.53;;;26.40;59.10;;;;;;5013583;28;20469;-56
2023/07/11 07:55:42;;;;;;;8.23;2.73;;;26.40;58.70;;;;;;5014196;28;20533;-56
2023/07/11 07:58:10;;;;;;;3.37;2.40;;;26.50;58.30;;;;;;5013616;28;20461;-56
2023/07/11 08:00:37;;;;;;;3.67;2.70;;;26.60;57.90;;;;;;5013242;28;20823;-57
2023/07/11 08:03:06;;;;;;;5.27;3.10;;;26.70;57.70;;;;;;5012843;28;20469;-55
2023/07/11 08:05:33;;;;;;;9.30;2.60;;;26.80;57.50;;;;;;5012957;28;20932;-56
2023/07/11 08:08:00;;;;;;;2.60;2.40;;;26.90;57.20;;;;;;5013163;28;20442;-56
2023/07/11 08:10:27;;;;;;;3.77;2.70;;;27.00;57.10;;;;;;5013185;28;20462;-55
2023/07/11 08:12:55;;;;;;;3.90;3.00;;;27.10;57.00;;;;;;5012715;28;20653;-55
2023/07/11 08:15:22;;;;;;;4.67;2.67;;;27.20;56.70;;;;;;5013199;28;20951;-56
2023/07/11 08:17:49;;;;;;;3.50;2.97;;;27.30;56.40;;;;;;5013159;28;20541;-55
2023/07/11 08:20:15;;;;;;;6.17;3.33;;;27.40;56.30;;;;;;5013329;28;20454;-56
2023/07/11 08:22:43;;;;;;;4.37;2.70;;;27.40;56.10;;;;;;5013426;28;20463;-56
2023/07/11 08:25:11;;;;;;;3.90;2.90;;;27.50;55.80;;;;;;5014500;28;20518;-57
2023/07/11 08:27:38;;;;;;;3.30;2.80;;;27.60;55.40;;;;;;5014412;28;20481;-57
2023/07/11 08:30:08;;;;;;;2.73;2.33;;;27.70;55.10;;;;;;5013743;28;20465;-57
2023/07/11 08:32:35;;;;;;;2.93;2.63;;;27.70;54.90;;;;;;5014250;28;20494;-57
2023/07/11 08:35:02;;;;;;;3.50;2.33;;;27.70;54.80;;;;;;5014380;28;20446;-56
2023/07/11 08:37:29;;;;;;;4.87;2.50;;;27.80;54.60;;;;;;5012434;28;20955;-57
2023/07/11 08:39:55;;;;;;;3.73;2.90;;;28.00;54.10;;;;;;5013265;28;20450;-56
2023/07/11 08:42:30;;;;;;;3.83;3.07;;;28.20;53.70;;;;;;5012891;28;20463;-57
2023/07/11 08:45:02;;;;;;;4.00;2.60;;;28.30;53.10;;;;;;5012722;28;20442;-56
2023/07/11 08:47:34;;;;;;;5.47;2.97;;;28.40;52.80;;;;;;5012832;28;20437;-55
2023/07/11 08:50:08;;;;;;;2.80;2.60;;;28.50;52.40;;;;;;5012574;28;20526;-58
2023/07/11 08:52:36;;;;;;;4.93;2.90;;;28.50;52.10;;;;;;5012009;28;20540;-56
2023/07/11 08:55:10;;;;;;;3.63;2.80;;;28.60;51.80;;;;;;5012828;28;20908;-56
2023/07/11 08:57:40;;;;;;;4.70;3.17;;;28.60;52.20;;;;;;5014136;28;20931;-56
2023/07/11 09:00:12;;;;;;;3.83;3.07;;;28.70;51.40;;;;;;5016322;28;20430;-55
2023/07/11 09:02:46;;;;;;;3.37;2.93;;;28.80;51.20;;;;;;5016111;28;21025;-57
2023/07/11 09:05:17;;;;;;;4.60;3.30;;;28.90;51.00;;;;;;5016259;28;20430;-57
2023/07/11 09:07:45;;;;;;;3.43;2.93;;;29.10;50.70;;;;;;5015714;28;20443;-55
2023/07/11 09:10:28;;;;;;;4.13;3.03;;;28.90;50.60;;;;;;5016417;28;20446;-55
2023/07/11 09:13:06;;;;;;;8.80;2.97;;;28.80;50.70;;;;;;5015560;28;20490;-54
2023/07/11 09:15:42;;;;;;;3.53;3.23;;;28.90;50.50;;;;;;5015772;28;20434;-57
2023/07/11 09:18:21;;;;;;;3.13;2.73;;;29.10;50.00;;;;;;5015605;28;20575;-57
2023/07/11 09:20:56;;;;;;;4.17;2.63;;;29.30;49.40;;;;;;5015875;28;20445;-57
2023/07/11 09:23:38;;;;;;;3.30;2.67;;;29.50;49.10;;;;;;5015790;28;20458;-57
2023/07/11 09:26:09;;;;;;;2.90;2.37;;;29.50;48.50;;;;;;5015681;28;20485;-57
2023/07/11 09:28:37;;;;;;;3.10;2.80;;;29.40;47.90;;;;;;5016216;28;20430;-55
2023/07/11 09:31:10;;;;;;;3.53;2.97;;;29.20;47.70;;;;;;5015226;28;20920;-56
2023/07/11 09:33:40;;;;;;;3.13;2.83;;;29.10;47.80;;;;;;5015593;28;20486;-55
2023/07/11 09:36:20;;;;;;;5.07;3.33;;;29.10;48.10;;;;;;5015486;28;20446;-56
2023/07/11 09:38:54;;;;;;;11.83;4.00;;;29.20;48.10;;;;;;5015809;28;20492;-56
2023/07/11 09:41:26;;;;;;;4.17;3.73;;;29.40;48.00;;;;;;5015487;28;20465;-57
2023/07/11 09:43:54;;;;;;;3.33;3.03;;;29.60;47.80;;;;;;5015254;28;20927;-57
2023/07/11 09:46:23;;;;;;;3.10;2.80;;;29.80;47.40;;;;;;5015270;28;20457;-56
2023/07/11 09:48:55;;;;;;;7.00;3.00;;;29.90;46.90;;;;;;5015773;28;20446;-57
2023/07/11 09:51:27;;;;;;;3.63;3.20;;;30.00;46.60;;;;;;5015084;28;20441;-58
2023/07/11 09:53:54;;;;;;;4.17;3.50;;;30.10;46.20;;;;;;5015124;28;20445;-57
2023/07/11 09:56:21;;;;;;;4.10;3.70;;;30.40;45.70;;;;;;5015110;28;20517;-58
2023/07/11 09:58:50;;;;;;;4.00;3.60;;;30.50;45.10;;;;;;5015338;28;20445;-56
2023/07/11 10:01:22;;;;;;;4.27;3.63;;;30.60;44.80;;;;;;5015772;28;20449;-58
2023/07/11 10:03:49;;;;;;;6.67;4.30;;;30.60;44.70;;;;;;5015239;28;20466;-57
2023/07/11 10:06:30;;;;;;;5.00;3.90;;;30.50;44.80;;;;;;5015270;28;20450;-56
2023/07/11 10:08:57;;;;;;;4.30;3.80;;;30.60;44.70;;;;;;5015245;28;20431;-56
2023/07/11 10:11:24;;;;;;;5.80;4.20;;;30.80;44.50;;;;;;5015294;28;20500;-58
2023/07/11 10:13:57;;;;;;;5.30;4.27;;;30.90;44.30;;;;;;5014264;28;20966;-56
2023/07/11 10:16:24;;;;;;;7.93;4.53;;;30.90;44.30;;;;;;5014754;28;20897;-57
2023/07/11 10:18:52;;;;;;;7.00;3.40;;;31.00;44.30;;;;;;5014740;28;20454;-56
2023/07/11 10:21:27;;;;;;;4.00;3.60;;;31.00;44.20;;;;;;5014785;28;20454;-58
2023/07/11 10:23:55;;;;;;;4.37;3.80;;;31.10;44.20;;;;;;5014809;28;20476;-56
2023/07/11 10:26:25;;;;;;;4.17;3.77;;;31.10;44.10;;;;;;5014709;28;20450;-56
2023/07/11 10:29:00;;;;;;;6.27;4.07;;;31.20;44.20;;;;;;5015060;28;20442;-57
2023/07/11 10:31:30;;;;;;;5.10;3.80;;;31.20;44.20;;;;;;5014018;28;20991;-58
2023/07/11 10:34:02;;;;;;;4.30;3.40;;;31.20;44.20;;;;;;5014249;28;20437;-57
2023/07/11 10:36:36;;;;;;;4.57;4.17;;;31.10;44.30;;;;;;5014631;28;20448;-57
2023/07/11 10:39:07;;;;;;;3.90;3.37;;;31.20;44.40;;;;;;5014231;28;20963;-58
2023/07/11 10:41:40;;;;;;;5.93;3.70;;;31.30;44.30;;;;;;5014401;28;20422;-57
2023/07/11 10:44:15;;;;;;;9.07;4.07;;;31.50;44.00;;;;;;5015708;28;20458;-58
2023/07/11 10:46:45;;;;;;;4.40;4.10;;;31.60;43.80;;;;;;5014629;28;20593;-56
2023/07/11 10:49:16;;;;;;;6.60;4.23;;;31.70;43.70;;;;;;5014468;28;20435;-56
2023/07/11 10:51:52;;;;;;;4.40;4.00;;;31.70;43.70;;;;;;5014503;28;20470;-57
2023/07/11 10:54:23;;;;;;;4.70;3.87;;;31.80;43.60;;;;;;5014287;28;20430;-55
2023/07/11 10:56:56;;;;;;;4.97;4.00;;;31.90;43.40;;;;;;5013892;28;20504;-58
2023/07/11 10:59:23;;;;;;;4.50;4.10;;;32.00;43.20;;;;;;5014195;28;20434;-57
2023/07/11 11:02:01;;;;;;;4.67;4.17;;;31.80;43.30;;;;;;5013428;28;20489;-57
2023/07/11 11:05:00;;;;;;;5.40;4.03;;;31.70;43.60;;;;;;5014255;28;20426;-56
2023/07/11 11:07:34;;;;;;;4.77;4.07;;;31.80;43.70;;;;;;5014875;28;20426;-56
2023/07/11 11:10:07;;;;;;;5.30;4.33;;;31.80;43.50;;;;;;5015185;28;20450;-57
2023/07/11 11:12:40;;;;;;;5.10;4.33;;;31.80;43.40;;;;;;5014438;28;20518;-57
2023/07/11 11:15:32;;;;;;;6.17;4.30;;;31.80;43.60;;;;;;5015442;28;20777;-57
2023/07/11 11:18:11;;;;;;;4.37;3.97;;;31.80;43.60;;;;;;5014705;28;20431;-56
2023/07/11 11:20:47;;;;;;;5.40;4.60;;;31.80;43.60;;;;;;5015065;28;20435;-57
2023/07/11 11:23:29;;;;;;;5.40;4.20;;;31.80;43.60;;;;;;5013920;28;20546;-55
2023/07/11 11:26:08;;;;;;;4.93;4.50;;;31.80;43.60;;;;;;5013322;28;20441;-56
2023/07/11 11:28:45;;;;;;;6.90;3.90;;;31.60;44.00;;;;;;5013407;28;20469;-57
2023/07/11 11:31:20;;;;;;;6.03;5.23;;;31.60;44.20;;;;;;5013470;28;20464;-56
2023/07/11 11:33:59;;;;;;;5.57;4.40;;;31.60;44.20;;;;;;5013200;28;20470;-56
2023/07/11 11:36:30;;;;;;;5.30;3.63;;;31.70;44.10;;;;;;5012947;28;20504;-56
2023/07/11 11:39:13;;;;;;;5.10;4.20;;;32.00;43.90;;;;;;5013257;28;20440;-56
2023/07/11 11:41:48;;;;;;;7.83;4.70;;;32.10;43.60;;;;;;5013149;28;20471;-57
2023/07/11 11:44:19;;;;;;;5.47;4.00;;;32.20;43.40;;;;;;5012977;28;20525;-56
2023/07/11 11:46:46;;;;;;;4.20;3.80;;;32.30;43.40;;;;;;5013056;28;20451;-57
2023/07/11 11:49:14;;;;;;;4.73;4.17;;;32.20;43.40;;;;;;5013276;28;20823;-58
2023/07/11 11:51:42;;;;;;;5.77;5.27;;;32.10;43.60;;;;;;5013600;28;20470;-56
2023/07/11 11:54:18;;;;;;;5.10;4.37;;;32.10;43.70;;;;;;5013786;28;20485;-57
2023/07/11 11:56:48;;;;;;;5.80;4.00;;;32.20;43.70;;;;;;5013040;28;20522;-58
2023/07/11 11:59:19;;;;;;;4.70;4.30;;;32.40;43.40;;;;;;5013309;28;20451;-56
2023/07/11 12:01:59;;;;;;;7.07;4.93;;;32.80;43.00;;;;;;5013104;28;20553;-58
2023/07/11 12:04:43;;;;;;;4.63;4.20;;;33.00;42.40;;;;;;5013645;28;20452;-56
2023/07/11 12:07:25;;;;;;;6.70;4.13;;;33.10;42.10;;;;;;5013007;28;20426;-57
2023/07/11 12:10:26;;;;;;;5.80;4.47;;;33.30;41.90;;;;;;5013128;28;20422;-58
2023/07/11 12:13:10;;;;;;;5.73;4.37;;;33.80;41.10;;;;;;5012919;28;20482;-57
2023/07/11 12:15:39;;;;;;;4.63;4.23;;;34.60;40.20;;;;;;5011080;28;20951;-57
2023/07/11 12:18:27;;;;;;;5.37;4.87;;;35.20;39.20;;;;;;5012916;28;20449;-56
2023/07/11 12:21:32;;;;;;;5.67;4.40;;;35.40;38.50;;;;;;5013269;28;20447;-57
2023/07/11 12:24:47;;;;;;;4.77;4.37;;;35.30;38.30;;;;;;4993171;28;20495;-57
2023/07/11 12:27:52;;;;;;;4.83;4.43;;;35.00;38.90;;;;;;4970629;28;20972;-57
2023/07/11 12:31:04;;;;;;;5.80;4.70;;;35.00;39.00;;;;;;5012866;28;20857;-57
2023/07/11 12:33:33;;;;;;;6.97;5.00;;;35.20;38.70;;;;;;5016788;28;20487;-56
2023/07/11 12:36:37;;;;;;;6.03;5.43;;;35.20;38.40;;;;;;5016918;28;20515;-56
2023/07/11 12:39:16;;;;;;;6.60;4.90;;;35.30;38.20;;;;;;5016823;28;20445;-58
2023/07/11 12:41:55;;;;;;;4.87;4.47;;;35.50;37.40;;;;;;5016858;28;20480;-57
2023/07/11 12:44:22;;;;;;;6.47;4.37;;;35.80;36.70;;;;;;5016642;28;20429;-56
2023/07/11 12:46:52;;;;;;;5.73;5.00;;;35.90;36.30;;;;;;5016450;28;20449;-56
2023/07/11 12:49:25;;;;;;;5.10;4.60;;;35.60;36.50;;;;;;5016744;28;20432;-55
2023/07/11 12:51:52;;;;;;;5.17;4.67;;;35.20;36.90;;;;;;5016600;28;20475;-56
2023/07/11 12:54:21;;;;;;;6.70;4.77;;;34.90;37.40;;;;;;5016281;28;20488;-56
2023/07/11 12:56:50;;;;;;;5.00;4.50;;;34.70;37.70;;;;;;5016150;28;20452;-56
2023/07/11 12:59:21;;;;;;;5.77;5.27;;;34.50;37.70;;;;;;5016398;28;20448;-56
2023/07/11 13:04:26;;;;;;;6.40;5.17;;;33.90;38.00;;;;;;5049660;22;20508;-59
2023/07/11 13:06:54;;;;;;;5.50;4.83;;;33.80;38.40;;;;;;5017905;28;20429;-59
2023/07/11 13:09:22;;;;;;;5.57;5.07;;;33.70;38.00;;;;;;5018398;28;20463;-59